createdAt,value
2023-05-14T00:01:46.456Z,12.95
2023-05-14T00:04:12.963Z,12.93
2023-05-14T00:06:39.419Z,12.88
2023-05-14T00:09:06.152Z,12.83
2023-05-14T00:11:32.647Z,12.82
2023-05-14T00:13:59.137Z,12.76
2023-05-14T00:16:25.708Z,12.72
2023-05-14T00:18:52.317Z,12.72
2023-05-14T00:21:18.795Z,12.69
2023-05-14T00:23:45.213Z,12.67
2023-05-14T00:26:11.673Z,12.66
2023-05-14T00:28:38.744Z,12.65
2023-05-14T00:31:05.351Z,12.63
2023-05-14T00:33:32.563Z,12.62
2023-05-14T00:35:59.479Z,12.58
2023-05-14T00:38:28.405Z,12.54
2023-05-14T00:40:55.311Z,12.55
2023-05-14T00:43:22.724Z,12.51
2023-05-14T00:45:54.047Z,12.46
2023-05-14T00:48:21.643Z,12.45
2023-05-14T00:50:49.790Z,12.45
2023-05-14T00:53:16.915Z,12.38
2023-05-14T00:55:43.544Z,12.37
2023-05-14T00:58:12.539Z,12.35
2023-05-14T01:00:40.850Z,12.35
2023-05-14T01:03:08.237Z,12.31
2023-05-14T01:06:07.010Z,12.26
2023-05-14T01:08:58.536Z,12.18
2023-05-14T01:11:47.838Z,12.12
2023-05-14T01:14:22.094Z,12.07
2023-05-14T01:16:52.509Z,12.06
2023-05-14T01:19:46.665Z,12.02
2023-05-14T01:22:13.787Z,12.00
2023-05-14T01:24:40.917Z,12.00
2023-05-14T01:27:17.292Z,12.00
2023-05-14T01:29:53.230Z,11.95
2023-05-14T01:32:21.620Z,11.91
2023-05-14T01:34:50.819Z,11.85
2023-05-14T01:37:17.943Z,11.85
2023-05-14T01:39:45.782Z,11.84
2023-05-14T01:42:13.130Z,11.83
2023-05-14T01:44:39.733Z,11.78
2023-05-14T01:47:06.324Z,11.74
2023-05-14T01:49:32.882Z,11.73
2023-05-14T01:51:59.313Z,11.73
2023-05-14T01:54:25.865Z,11.72
2023-05-14T01:56:52.264Z,11.70
2023-05-14T01:59:18.707Z,11.66
2023-05-14T02:01:45.234Z,11.63
2023-05-14T02:04:11.778Z,11.60
2023-05-14T02:06:41.345Z,11.58
2023-05-14T02:09:07.868Z,11.56
2023-05-14T02:11:34.342Z,11.54
2023-05-14T02:14:00.760Z,11.52
2023-05-14T02:16:27.453Z,11.53
2023-05-14T02:18:53.991Z,11.51
2023-05-14T02:21:20.617Z,11.48
2023-05-14T02:23:49.336Z,11.45
2023-05-14T02:26:16.446Z,11.40
2023-05-14T02:28:43.778Z,11.40
2023-05-14T02:31:12.712Z,11.38
2023-05-14T02:33:39.247Z,11.34
2023-05-14T02:36:05.930Z,11.32
2023-05-14T02:38:32.415Z,11.27
2023-05-14T02:40:58.944Z,11.27
2023-05-14T02:43:25.398Z,11.24
2023-05-14T02:45:51.913Z,11.25
2023-05-14T02:48:18.735Z,11.24
2023-05-14T02:50:45.864Z,11.25
2023-05-14T02:53:12.451Z,11.23
2023-05-14T02:55:38.850Z,11.22
2023-05-14T02:58:05.232Z,11.19
2023-05-14T03:00:31.745Z,11.17
2023-05-14T03:02:58.639Z,11.14
2023-05-14T03:05:25.654Z,11.12
2023-05-14T03:07:53.494Z,11.09
2023-05-14T03:10:20.506Z,11.08
2023-05-14T03:12:47.519Z,11.10
2023-05-14T03:15:14.006Z,11.05
2023-05-14T03:17:40.543Z,11.03
2023-05-14T03:20:07.469Z,11.03
2023-05-14T03:22:35.661Z,11.00
2023-05-14T03:25:02.091Z,10.99
2023-05-14T03:27:28.539Z,11.01
2023-05-14T03:29:55.157Z,11.00
2023-05-14T03:32:21.635Z,10.98
2023-05-14T03:34:48.141Z,10.96
2023-05-14T03:37:14.620Z,10.97
2023-05-14T03:39:41.078Z,10.98
2023-05-14T03:42:07.641Z,10.98
2023-05-14T03:44:34.209Z,10.98
2023-05-14T03:47:00.608Z,11.01
2023-05-14T03:49:27.584Z,11.04
2023-05-14T03:51:55.160Z,11.07
2023-05-14T03:54:21.730Z,11.06
2023-05-14T03:56:48.175Z,11.05
2023-05-14T03:59:14.674Z,11.10
2023-05-14T04:01:41.102Z,11.11
2023-05-14T04:04:07.818Z,11.11
2023-05-14T04:06:34.690Z,11.12
2023-05-14T04:09:02.118Z,11.15
2023-05-14T04:11:28.730Z,11.11
2023-05-14T04:13:55.519Z,11.11
2023-05-14T04:16:22.453Z,11.13
2023-05-14T04:18:49.145Z,11.19
2023-05-14T04:21:15.735Z,11.22
2023-05-14T04:23:42.155Z,11.25
2023-05-14T04:26:08.666Z,11.25
2023-05-14T04:28:35.199Z,11.19
2023-05-14T04:31:01.714Z,11.18
2023-05-14T04:33:28.206Z,11.23
2023-05-14T04:35:54.672Z,11.26
2023-05-14T04:38:21.232Z,11.33
2023-05-14T04:40:47.689Z,11.35
2023-05-14T04:43:14.158Z,11.49
2023-05-14T04:45:41.176Z,11.62
2023-05-14T04:48:07.893Z,11.74
2023-05-14T04:50:35.096Z,11.95
2023-05-14T04:53:01.684Z,12.09
2023-05-14T04:55:28.248Z,12.17
2023-05-14T04:57:54.869Z,12.24
2023-05-14T05:00:22.207Z,12.29
2023-05-14T05:02:49.029Z,12.33
2023-05-14T05:05:15.564Z,12.41
2023-05-14T05:07:42.012Z,12.55
2023-05-14T05:10:08.902Z,12.65
2023-05-14T05:15:02.128Z,12.63
2023-05-14T05:17:29.568Z,12.61
2023-05-14T05:19:56.253Z,12.64
2023-05-14T05:22:23.742Z,12.71
2023-05-14T05:24:50.307Z,12.83
2023-05-14T05:27:16.929Z,12.90
2023-05-14T05:29:44.522Z,12.99
2023-05-14T05:32:10.972Z,13.06
2023-05-14T05:34:37.478Z,13.08
2023-05-14T05:37:05.855Z,13.04
2023-05-14T05:39:35.986Z,12.99
2023-05-14T05:42:02.765Z,13.03
2023-05-14T05:44:29.357Z,13.10
2023-05-14T05:46:57.228Z,13.10
2023-05-14T05:49:23.950Z,13.17
2023-05-14T05:51:50.541Z,13.15
2023-05-14T05:54:17.118Z,13.24
2023-05-14T05:56:43.710Z,13.26
2023-05-14T05:59:10.247Z,13.38
2023-05-14T06:01:37.113Z,13.40
2023-05-14T06:04:06.162Z,13.38
2023-05-14T06:06:32.990Z,13.50
2023-05-14T06:08:59.605Z,13.57
2023-05-14T06:11:26.720Z,13.76
2023-05-14T06:13:53.814Z,14.86
2023-05-14T06:16:20.903Z,15.84
2023-05-14T06:18:47.624Z,15.24
2023-05-14T06:21:14.192Z,14.74
2023-05-14T06:23:41.213Z,14.52
2023-05-14T06:26:07.619Z,14.50
2023-05-14T06:28:34.146Z,14.56
2023-05-14T06:31:00.678Z,15.53
2023-05-14T06:33:30.803Z,15.68
2023-05-14T06:36:03.492Z,16.01
2023-05-14T06:38:29.907Z,18.17
2023-05-14T06:40:56.381Z,18.47
2023-05-14T06:43:22.802Z,19.28
2023-05-14T06:45:50.130Z,18.86
2023-05-14T06:48:18.878Z,19.33
2023-05-14T06:50:46.429Z,21.41
2023-05-14T06:53:12.989Z,21.04
2023-05-14T06:55:39.736Z,19.93
2023-05-14T06:58:07.290Z,20.82
2023-05-14T07:00:33.789Z,20.19
2023-05-14T07:03:00.349Z,19.95
2023-05-14T07:05:26.839Z,21.76
2023-05-14T07:07:53.359Z,23.79
2023-05-14T07:10:19.851Z,24.83
2023-05-14T07:12:46.383Z,24.54
2023-05-14T07:15:12.844Z,25.85
2023-05-14T07:17:39.632Z,25.25
2023-05-14T07:20:06.902Z,22.82
2023-05-14T07:22:33.352Z,22.88
2023-05-14T07:24:59.937Z,24.17
2023-05-14T07:27:26.534Z,23.70
2023-05-14T07:29:53.061Z,23.70
2023-05-14T07:32:19.473Z,24.72
2023-05-14T07:34:46.299Z,25.71
2023-05-14T07:37:12.753Z,25.69
2023-05-14T07:39:41.547Z,26.03
2023-05-14T07:42:08.050Z,25.88
2023-05-14T07:44:34.577Z,25.49
2023-05-14T07:47:01.253Z,25.14
2023-05-14T07:49:27.778Z,25.41
2023-05-14T07:51:54.266Z,25.67
2023-05-14T07:54:20.824Z,25.49
2023-05-14T07:56:47.358Z,25.43
2023-05-14T07:59:13.853Z,24.96
2023-05-14T08:01:40.599Z,24.77
2023-05-14T08:04:07.164Z,25.02
2023-05-14T08:06:34.050Z,24.75
2023-05-14T08:09:00.716Z,24.20
2023-05-14T08:11:27.143Z,23.40
2023-05-14T08:13:53.610Z,23.34
2023-05-14T08:16:20.126Z,23.32
2023-05-14T08:18:48.136Z,23.51
2023-05-14T08:21:14.796Z,23.79
2023-05-14T08:23:41.312Z,24.43
2023-05-14T08:26:07.746Z,25.14
2023-05-14T08:28:34.195Z,25.11
2023-05-14T08:31:00.740Z,25.35
2023-05-14T08:33:27.316Z,25.71
2023-05-14T08:35:54.679Z,25.78
2023-05-14T08:38:21.124Z,26.24
2023-05-14T08:40:58.355Z,26.21
2023-05-14T08:43:29.745Z,26.13
2023-05-14T08:46:01.907Z,25.91
2023-05-14T08:48:32.890Z,25.61
2023-05-14T08:51:00.447Z,25.45
2023-05-14T08:53:27.235Z,25.65
2023-05-14T08:55:54.046Z,25.55
2023-05-14T08:58:20.692Z,25.42
2023-05-14T09:00:47.590Z,25.56
2023-05-14T09:03:14.979Z,25.50
2023-05-14T09:05:41.968Z,25.15
2023-05-14T09:08:08.418Z,25.43
2023-05-14T09:10:34.857Z,25.60
2023-05-14T09:13:01.436Z,25.90
2023-05-14T09:15:29.645Z,25.96
2023-05-14T09:17:58.612Z,25.96
2023-05-14T09:20:25.879Z,25.40
2023-05-14T09:22:54.283Z,25.38
2023-05-14T09:25:26.496Z,25.55
2023-05-14T09:27:56.113Z,25.85
2023-05-14T09:30:25.133Z,25.78
2023-05-14T09:32:54.498Z,25.68
2023-05-14T09:35:22.834Z,25.72
2023-05-14T09:37:51.792Z,25.71
2023-05-14T09:40:20.475Z,25.85
2023-05-14T09:42:50.936Z,26.16
2023-05-14T09:45:17.849Z,26.61
2023-05-14T09:47:45.013Z,26.82
2023-05-14T09:50:12.272Z,26.82
2023-05-14T09:52:39.106Z,26.76
2023-05-14T09:55:06.393Z,26.46
2023-05-14T09:57:33.606Z,26.51
2023-05-14T10:00:00.363Z,26.47
2023-05-14T10:02:41.164Z,26.38
2023-05-14T10:05:08.312Z,26.76
2023-05-14T10:07:41.639Z,26.90
2023-05-14T10:10:13.601Z,27.25
2023-05-14T10:12:40.619Z,27.28
2023-05-14T10:15:23.920Z,27.06
2023-05-14T10:17:56.605Z,26.81
2023-05-14T10:20:25.185Z,26.64
2023-05-14T10:22:52.173Z,26.90
2023-05-14T10:25:18.900Z,27.05
2023-05-14T10:27:45.588Z,26.55
2023-05-14T10:30:12.877Z,26.44
2023-05-14T10:32:41.716Z,26.10
2023-05-14T10:35:20.549Z,26.15
2023-05-14T10:37:47.244Z,27.01
2023-05-14T10:40:14.089Z,27.25
2023-05-14T10:42:43.195Z,27.03
2023-05-14T10:45:18.649Z,26.87
2023-05-14T10:47:47.233Z,26.74
2023-05-14T10:50:17.656Z,27.00
2023-05-14T10:52:45.712Z,27.07
2023-05-14T10:55:16.680Z,26.86
2023-05-14T10:57:45.325Z,26.46
2023-05-14T11:00:13.958Z,26.21
2023-05-14T11:02:42.809Z,26.63
2023-05-14T11:05:13.702Z,26.34
2023-05-14T11:07:42.168Z,26.78
2023-05-14T11:10:14.263Z,27.06
2023-05-14T11:12:46.093Z,27.05
2023-05-14T11:15:16.502Z,26.84
2023-05-14T11:17:45.262Z,27.04
2023-05-14T11:20:15.058Z,27.13
2023-05-14T11:22:42.960Z,26.93
2023-05-14T11:25:10.656Z,26.87
2023-05-14T11:27:38.663Z,26.77
2023-05-14T11:30:11.843Z,27.06
2023-05-14T11:32:38.390Z,27.13
2023-05-14T11:35:05.868Z,26.66
2023-05-14T11:37:33.392Z,26.93
2023-05-14T11:40:01.699Z,27.10
2023-05-14T11:42:28.297Z,27.00
2023-05-14T11:44:54.877Z,26.28
2023-05-14T11:47:22.318Z,26.09
2023-05-14T11:49:49.410Z,25.82
2023-05-14T11:52:19.432Z,25.68
2023-05-14T11:54:46.617Z,25.37
2023-05-14T11:57:16.285Z,25.27
2023-05-14T11:59:42.971Z,25.40
2023-05-14T12:02:14.470Z,25.86
2023-05-14T12:04:42.322Z,26.31
2023-05-14T12:07:13.329Z,25.92
2023-05-14T12:09:50.886Z,26.04
2023-05-14T12:12:23.706Z,26.14
2023-05-14T12:14:51.009Z,25.83
2023-05-14T12:17:19.652Z,25.59
2023-05-14T12:19:48.542Z,25.66
2023-05-14T12:22:17.504Z,25.76
2023-05-14T12:24:53.401Z,26.02
2023-05-14T12:27:24.860Z,25.81
2023-05-14T12:30:09.110Z,25.71
2023-05-14T12:32:45.829Z,25.61
2023-05-14T12:35:12.507Z,25.72
2023-05-14T12:37:39.979Z,25.90
2023-05-14T12:40:09.417Z,25.61
2023-05-14T12:42:36.394Z,25.49
2023-05-14T12:45:05.482Z,25.49
2023-05-14T12:47:32.450Z,25.65
2023-05-14T12:49:58.920Z,25.64
2023-05-14T12:52:36.610Z,25.72
2023-05-14T12:55:05.532Z,25.42
2023-05-14T12:57:32.258Z,25.23
2023-05-14T12:59:58.946Z,25.31
2023-05-14T13:02:25.490Z,25.29
2023-05-14T13:04:51.897Z,25.20
2023-05-14T13:07:18.510Z,25.13
2023-05-14T13:09:45.011Z,25.12
2023-05-14T13:12:11.533Z,25.44
2023-05-14T13:14:38.022Z,25.78
2023-05-14T13:17:05.189Z,25.59
2023-05-14T13:19:32.472Z,25.53
2023-05-14T13:21:58.884Z,25.46
2023-05-14T13:24:25.462Z,25.24
2023-05-14T13:26:51.878Z,25.12
2023-05-14T13:29:18.375Z,24.92
2023-05-14T13:31:44.806Z,25.13
2023-05-14T13:34:11.285Z,25.51
2023-05-14T13:36:39.604Z,25.72
2023-05-14T13:39:07.126Z,25.70
2023-05-14T13:41:35.620Z,25.66
2023-05-14T13:44:02.062Z,25.71
2023-05-14T13:46:28.877Z,25.50
2023-05-14T13:48:55.426Z,25.39
2023-05-14T13:51:24.790Z,25.40
2023-05-14T13:53:51.219Z,25.10
2023-05-14T13:56:17.694Z,25.13
2023-05-14T13:58:44.171Z,25.37
2023-05-14T14:01:10.790Z,25.43
2023-05-14T14:03:37.272Z,25.46
2023-05-14T14:06:03.805Z,25.41
2023-05-14T14:08:31.079Z,25.29
2023-05-14T14:10:57.666Z,25.21
2023-05-14T14:13:24.432Z,25.18
2023-05-14T14:15:51.423Z,25.17
2023-05-14T14:18:17.953Z,25.18
2023-05-14T14:20:44.429Z,24.98
2023-05-14T14:23:10.914Z,24.81
2023-05-14T14:25:37.339Z,24.36
2023-05-14T14:28:03.943Z,24.42
2023-05-14T14:30:30.396Z,24.37
2023-05-14T14:32:56.972Z,24.25
2023-05-14T14:35:25.052Z,24.36
2023-05-14T14:37:53.613Z,24.38
2023-05-14T14:40:20.163Z,24.32
2023-05-14T14:42:47.948Z,23.97
2023-05-14T14:45:14.455Z,23.90
2023-05-14T14:47:46.220Z,24.00
2023-05-14T14:50:13.642Z,23.84
2023-05-14T14:52:45.444Z,24.07
2023-05-14T14:55:12.574Z,24.09
2023-05-14T14:57:39.108Z,24.10
2023-05-14T15:00:06.865Z,24.20
2023-05-14T15:02:33.427Z,24.21
2023-05-14T15:05:00.151Z,23.98
2023-05-14T15:07:26.637Z,23.90
2023-05-14T15:09:53.052Z,23.99
2023-05-14T15:12:19.574Z,23.79
2023-05-14T15:14:46.014Z,23.60
2023-05-14T15:17:12.426Z,23.57
2023-05-14T15:19:38.879Z,23.62
2023-05-14T15:22:05.412Z,23.48
2023-05-14T15:24:31.940Z,23.41
2023-05-14T15:27:00.067Z,23.56
2023-05-14T15:29:26.646Z,23.65
2023-05-14T15:31:53.205Z,23.62
2023-05-14T15:34:20.768Z,23.52
2023-05-14T15:36:47.315Z,23.34
2023-05-14T15:39:13.794Z,23.10
2023-05-14T15:41:40.485Z,23.02
2023-05-14T15:44:07.311Z,22.99
2023-05-14T15:46:33.861Z,23.02
2023-05-14T15:49:00.337Z,22.89
2023-05-14T15:51:26.832Z,22.81
2023-05-14T15:53:55.066Z,22.73
2023-05-14T15:56:23.047Z,22.66
2023-05-14T15:58:55.813Z,22.63
2023-05-14T16:01:22.382Z,22.70
2023-05-14T16:03:49.000Z,22.74
2023-05-14T16:06:16.020Z,22.81
2023-05-14T16:08:42.414Z,22.65
2023-05-14T16:11:10.521Z,22.49
2023-05-14T16:13:38.375Z,22.56
2023-05-14T16:16:05.229Z,22.51
2023-05-14T16:18:31.696Z,22.46
2023-05-14T16:20:58.254Z,22.17
2023-05-14T16:23:24.772Z,22.24
2023-05-14T16:25:51.314Z,22.11
2023-05-14T16:28:17.799Z,22.06
2023-05-14T16:30:44.288Z,21.97
2023-05-14T16:33:10.726Z,21.79
2023-05-14T16:35:37.350Z,21.71
2023-05-14T16:38:04.072Z,21.64
2023-05-14T16:40:30.622Z,21.45
2023-05-14T16:42:57.113Z,21.32
2023-05-14T16:45:24.032Z,21.26
2023-05-14T16:47:50.738Z,21.17
2023-05-14T16:50:17.294Z,21.09
2023-05-14T16:52:43.737Z,20.98
2023-05-14T16:55:10.648Z,20.98
2023-05-14T16:57:37.313Z,20.86
2023-05-14T17:00:06.043Z,20.79
2023-05-14T17:02:33.332Z,20.74
2023-05-14T17:05:01.418Z,20.68
2023-05-14T17:07:28.076Z,20.71
2023-05-14T17:09:54.685Z,20.68
2023-05-14T17:12:21.347Z,20.56
2023-05-14T17:14:50.318Z,20.56
2023-05-14T17:17:16.937Z,20.40
2023-05-14T17:19:43.715Z,20.22
2023-05-14T17:22:11.537Z,20.21
2023-05-14T17:24:39.041Z,20.00
2023-05-14T17:27:06.208Z,19.65
2023-05-14T17:29:32.713Z,19.59
2023-05-14T17:31:59.375Z,19.55
2023-05-14T17:34:25.894Z,19.40
2023-05-14T17:36:52.364Z,19.36
2023-05-14T17:39:18.777Z,19.20
2023-05-14T17:41:45.275Z,18.93
2023-05-14T17:44:13.038Z,18.79
2023-05-14T17:46:41.789Z,18.70
2023-05-14T17:49:08.271Z,18.64
2023-05-14T17:51:34.799Z,18.49
2023-05-14T17:54:01.213Z,18.35
2023-05-14T17:56:27.870Z,18.22
2023-05-14T17:58:54.406Z,18.17
2023-05-14T18:01:20.965Z,18.20
2023-05-14T18:03:47.545Z,18.15
2023-05-14T18:06:14.942Z,18.10
2023-05-14T18:08:41.720Z,18.07
2023-05-14T18:11:08.214Z,18.06
2023-05-14T18:13:34.846Z,17.94
2023-05-14T18:16:01.482Z,17.88
2023-05-14T18:18:28.041Z,17.76
2023-05-14T18:20:54.596Z,17.75
2023-05-14T18:23:21.188Z,17.66
2023-05-14T18:25:48.130Z,17.66
2023-05-14T18:28:15.335Z,17.54
2023-05-14T18:30:43.410Z,17.45
2023-05-14T18:33:10.219Z,17.30
2023-05-14T18:35:37.063Z,17.20
2023-05-14T18:38:03.603Z,17.10
2023-05-14T18:40:30.111Z,17.05
2023-05-14T18:42:59.018Z,16.90
2023-05-14T18:45:25.876Z,16.78
2023-05-14T18:47:52.724Z,16.62
2023-05-14T18:50:19.404Z,16.52
2023-05-14T18:52:45.970Z,16.34
2023-05-14T18:55:12.462Z,16.28
2023-05-14T18:57:38.919Z,16.14
2023-05-14T19:00:06.194Z,16.01
2023-05-14T19:02:32.753Z,15.93
2023-05-14T19:04:59.262Z,15.86
2023-05-14T19:07:27.166Z,15.77
2023-05-14T19:09:53.654Z,15.67
2023-05-14T19:12:20.141Z,15.64
2023-05-14T19:14:46.545Z,15.59
2023-05-14T19:17:13.060Z,15.58
2023-05-14T19:19:39.673Z,15.52
2023-05-14T19:22:06.629Z,15.51
2023-05-14T19:24:33.141Z,15.49
2023-05-14T19:26:59.733Z,15.42
2023-05-14T19:29:26.275Z,15.31
2023-05-14T19:31:52.786Z,15.26
2023-05-14T19:34:19.238Z,15.18
2023-05-14T19:36:45.835Z,15.17
2023-05-14T19:39:12.257Z,15.06
2023-05-14T19:41:38.859Z,15.00
2023-05-14T19:44:05.415Z,14.90
2023-05-14T19:46:31.972Z,14.84
2023-05-14T19:48:58.479Z,14.75
2023-05-14T19:51:25.430Z,14.72
2023-05-14T19:53:54.040Z,14.72
2023-05-14T19:56:21.557Z,14.62
2023-05-14T19:58:48.055Z,14.59
2023-05-14T20:01:15.025Z,14.58
2023-05-14T20:03:41.854Z,14.53
2023-05-14T20:06:08.418Z,14.52
2023-05-14T20:08:34.868Z,14.44
2023-05-14T20:11:01.541Z,14.42
2023-05-14T20:13:28.039Z,14.39
2023-05-14T20:15:55.070Z,14.40
2023-05-14T20:18:21.774Z,14.41
2023-05-14T20:20:49.047Z,14.34
2023-05-14T20:23:15.891Z,14.30
2023-05-14T20:25:43.055Z,14.28
2023-05-14T20:28:10.134Z,14.23
2023-05-14T20:30:36.656Z,14.23
2023-05-14T20:33:06.689Z,14.19
2023-05-14T20:35:33.238Z,14.14
2023-05-14T20:38:00.160Z,14.11
2023-05-14T20:40:26.630Z,14.13
2023-05-14T20:42:53.204Z,14.06
2023-05-14T20:45:19.752Z,13.97
2023-05-14T20:47:46.567Z,13.96
2023-05-14T20:50:13.775Z,13.98
2023-05-14T20:52:40.687Z,13.96
2023-05-14T20:55:07.645Z,13.90
2023-05-14T20:57:34.242Z,13.87
2023-05-14T21:00:01.532Z,13.86
2023-05-14T21:02:27.984Z,13.84
2023-05-14T21:04:54.728Z,13.82
2023-05-14T21:07:21.236Z,13.76
2023-05-14T21:09:52.147Z,13.79
2023-05-14T21:12:19.300Z,13.76
2023-05-14T21:14:45.792Z,13.73
2023-05-14T21:17:12.526Z,13.72
2023-05-14T21:19:39.083Z,13.71
2023-05-14T21:22:06.463Z,13.73
2023-05-14T21:24:32.959Z,13.69
2023-05-14T21:26:59.419Z,13.68
2023-05-14T21:29:25.985Z,13.65
2023-05-14T21:31:52.597Z,13.57
2023-05-14T21:34:19.048Z,13.49
2023-05-14T21:36:45.566Z,13.46
2023-05-14T21:39:12.036Z,13.43
2023-05-14T21:41:38.512Z,13.34
2023-05-14T21:44:04.971Z,13.26
2023-05-14T21:46:31.958Z,13.28
2023-05-14T21:48:58.475Z,13.23
2023-05-14T21:51:24.954Z,13.24
2023-05-14T21:53:51.329Z,13.20
2023-05-14T21:56:17.789Z,13.17
2023-05-14T21:58:44.489Z,13.19
2023-05-14T22:01:11.598Z,13.11
2023-05-14T22:03:38.515Z,13.05
2023-05-14T22:06:05.521Z,13.06
2023-05-14T22:08:32.263Z,12.98
2023-05-14T22:10:58.750Z,12.89
2023-05-14T22:13:25.275Z,12.92
2023-05-14T22:16:01.178Z,12.92
2023-05-14T22:18:36.505Z,12.93
2023-05-14T22:21:03.333Z,12.95
2023-05-14T22:23:29.989Z,12.90
2023-05-14T22:25:56.926Z,12.88
2023-05-14T22:28:23.562Z,12.88
2023-05-14T22:30:50.158Z,12.84
2023-05-14T22:33:16.618Z,12.83
2023-05-14T22:35:43.083Z,12.80
2023-05-14T22:38:09.494Z,12.77
2023-05-14T22:40:36.429Z,12.76
2023-05-14T22:43:02.903Z,12.77
2023-05-14T22:45:29.418Z,12.74
2023-05-14T22:47:55.878Z,12.70
2023-05-14T22:50:22.477Z,12.65
2023-05-14T22:52:48.884Z,12.63
2023-05-14T22:55:15.465Z,12.63
2023-05-14T22:57:41.948Z,12.58
2023-05-14T23:00:09.001Z,12.52
2023-05-14T23:02:35.711Z,12.52
2023-05-14T23:05:02.216Z,12.52
2023-05-14T23:07:28.796Z,12.49
2023-05-14T23:09:55.262Z,12.51
2023-05-14T23:12:21.744Z,12.53
2023-05-14T23:14:48.212Z,12.57
2023-05-14T23:17:14.744Z,12.55
2023-05-14T23:19:41.307Z,12.58
2023-05-14T23:22:07.799Z,12.56
2023-05-14T23:24:34.352Z,12.56
2023-05-14T23:27:00.787Z,12.54
2023-05-14T23:29:27.262Z,12.55
2023-05-14T23:31:53.829Z,12.60
2023-05-14T23:34:21.990Z,12.59
2023-05-14T23:36:48.590Z,12.59
2023-05-14T23:39:16.203Z,12.61
2023-05-14T23:41:42.698Z,12.63
2023-05-14T23:44:09.098Z,12.60
2023-05-14T23:46:35.682Z,12.59
2023-05-14T23:49:02.151Z,12.55
2023-05-14T23:51:28.580Z,12.55
2023-05-14T23:54:00.150Z,12.52
2023-05-14T23:56:30.318Z,12.50
2023-05-14T23:58:56.877Z,12.48
